Time;durP1;ratioP1;P1;durP2;ratioP2;P2;SDS_P1;SDS_P2;PMS_P1;PMS_P2;Temp;Humidity;BMP_temperature;BMP_pressure;BME280_temperature;BME280_humidity;BME280_pressure;Samples;Min_cycle;Max_cycle;Signal;HPM_P1;HPM_P2
2021/04/15 00:02:03;;;;;;;2.33;1.40;;;7.50;84.30;;;;;;5045452;28;20036;-57
2021/04/15 00:04:28;;;;;;;1.98;1.33;;;7.40;85.20;;;;;;5044940;28;20058;-57
2021/04/15 00:06:55;;;;;;;2.53;1.42;;;7.50;85.60;;;;;;5045786;28;20021;-57
2021/04/15 00:09:23;;;;;;;2.40;1.30;;;7.50;86.30;;;;;;5051169;28;20499;-58
2021/04/15 00:11:50;;;;;;;3.42;1.23;;;7.30;87.00;;;;;;5062548;28;20024;-57
2021/04/15 00:14:18;;;;;;;1.80;1.20;;;7.10;87.80;;;;;;5064479;28;20345;-58
2021/04/15 00:16:45;;;;;;;1.95;1.30;;;7.10;88.20;;;;;;5065126;28;20028;-58
2021/04/15 00:19:12;;;;;;;2.50;1.23;;;7.00;88.60;;;;;;5064047;28;20028;-58
2021/04/15 00:21:39;;;;;;;1.35;1.05;;;7.10;88.60;;;;;;5064128;28;20148;-57
2021/04/15 00:24:05;;;;;;;2.47;1.10;;;6.90;88.90;;;;;;5064416;28;20043;-58
2021/04/15 00:26:32;;;;;;;2.00;1.23;;;6.80;88.80;;;;;;5062309;28;20028;-57
2021/04/15 00:28:58;;;;;;;2.15;1.20;;;6.90;88.60;;;;;;5065639;28;20055;-58
2021/04/15 00:31:26;;;;;;;4.10;1.38;;;6.90;88.30;;;;;;5065345;28;20029;-57
2021/04/15 00:33:52;;;;;;;2.72;1.63;;;6.90;88.50;;;;;;5064399;28;20037;-57
2021/04/15 00:36:20;;;;;;;2.28;1.20;;;6.80;89.30;;;;;;5047899;28;20100;-57
2021/04/15 00:38:47;;;;;;;2.10;1.00;;;6.70;89.80;;;;;;5045299;28;20036;-57
2021/04/15 00:41:15;;;;;;;2.50;1.35;;;6.60;89.70;;;;;;5044954;28;20052;-57
2021/04/15 00:43:43;;;;;;;2.63;1.50;;;6.70;90.00;;;;;;5044909;28;20041;-57
2021/04/15 00:46:38;;;;;;;2.17;1.20;;;6.70;90.00;;;;;;5043502;28;20029;-58
2021/04/15 00:49:05;;;;;;;;;;;6.60;90.20;;;;;;5044790;28;20491;-58
2021/04/15 00:51:45;;;;;;;2.38;1.58;;;6.60;90.30;;;;;;5059374;28;19935;-57
2021/04/15 00:54:31;;;;;;;2.58;1.30;;;6.50;90.70;;;;;;5064659;28;20056;-58
2021/04/15 00:56:58;;;;;;;3.90;2.30;;;6.40;90.80;;;;;;5044946;28;20025;-57
2021/04/15 00:59:25;;;;;;;4.55;1.55;;;6.40;90.80;;;;;;5045348;28;20586;-57
2021/04/15 01:01:52;;;;;;;2.63;1.38;;;6.30;90.90;;;;;;5045706;28;20522;-57
2021/04/15 01:04:19;;;;;;;7.28;1.27;;;6.40;90.90;;;;;;5044522;28;20063;-58
2021/04/15 01:06:44;;;;;;;1.90;1.25;;;6.30;91.20;;;;;;5062414;28;20662;-58
2021/04/15 01:09:11;;;;;;;3.20;1.30;;;6.30;91.20;;;;;;5046615;28;20051;-57
2021/04/15 01:11:58;;;;;;;3.22;1.58;;;6.30;91.20;;;;;;5048667;28;20025;-57
2021/04/15 01:14:32;;;;;;;3.85;1.50;;;6.30;91.40;;;;;;5048663;28;20043;-57
2021/04/15 01:17:42;;;;;;;3.53;1.45;;;6.30;91.50;;;;;;5066209;28;20036;-57
2021/04/15 01:20:20;;;;;;;3.28;1.60;;;6.30;91.70;;;;;;5048867;28;20041;-57
2021/04/15 01:22:58;;;;;;;2.28;1.60;;;6.20;91.80;;;;;;5048367;28;20036;-57
2021/04/15 01:25:26;;;;;;;3.17;1.65;;;6.20;92.00;;;;;;5048179;28;20565;-58
2021/04/15 01:28:21;;;;;;;2.15;1.40;;;6.20;92.10;;;;;;5048840;28;20082;-57
2021/04/15 01:30:57;;;;;;;3.03;1.65;;;6.10;92.30;;;;;;5060615;28;20116;-57
2021/04/15 01:33:42;;;;;;;3.95;1.88;;;6.20;92.30;;;;;;5048880;28;20029;-57
2021/04/15 01:36:32;;;;;;;;;;;6.20;92.50;;;;;;5048395;28;20438;-57
2021/04/15 01:39:22;;;;;;;3.28;1.73;;;6.00;92.60;;;;;;5047728;28;19991;-57
2021/04/15 01:41:55;;;;;;;3.72;1.60;;;5.80;93.20;;;;;;5048293;28;20103;-57
2021/04/15 01:44:39;;;;;;;4.68;1.65;;;5.80;93.20;;;;;;5048663;28;20463;-57
2021/04/15 01:47:18;;;;;;;2.83;1.77;;;5.80;93.60;;;;;;5047987;28;20039;-57
2021/04/15 01:49:49;;;;;;;3.08;2.17;;;5.90;93.60;;;;;;5055979;28;20060;-57
2021/04/15 01:52:17;;;;;;;2.63;1.40;;;5.80;93.80;;;;;;5068068;28;20131;-58
2021/04/15 01:54:59;;;;;;;1.52;1.40;;;5.90;93.80;;;;;;5068145;28;20021;-57
2021/04/15 01:57:38;;;;;;;3.15;1.58;;;6.00;93.60;;;;;;5068000;28;20492;-57
2021/04/15 02:00:06;;;;;;;2.80;1.98;;;5.80;94.20;;;;;;5056233;28;20033;-57
2021/04/15 02:02:40;;;;;;;4.32;2.10;;;5.90;94.20;;;;;;5047800;28;20107;-57
2021/04/15 02:05:40;;;;;;;3.35;1.58;;;5.90;94.40;;;;;;5058354;28;20482;-57
2021/04/15 02:08:17;;;;;;;2.70;1.60;;;5.70;94.30;;;;;;5063307;28;20459;-58
2021/04/15 02:10:52;;;;;;;3.22;1.88;;;5.70;94.60;;;;;;5065686;28;20033;-57
2021/04/15 02:13:18;;;;;;;3.67;1.67;;;5.80;94.70;;;;;;5066625;28;20031;-57
2021/04/15 02:15:54;;;;;;;2.63;1.70;;;5.60;95.50;;;;;;5067026;28;20104;-57
2021/04/15 02:18:27;;;;;;;2.25;1.60;;;5.60;95.90;;;;;;5056821;28;20041;-57
2021/04/15 02:21:01;;;;;;;3.33;2.00;;;5.70;95.80;;;;;;5064392;28;20024;-57
2021/04/15 02:23:33;;;;;;;2.67;1.80;;;5.70;95.70;;;;;;5066561;28;20098;-57
2021/04/15 02:26:14;;;;;;;4.13;2.13;;;5.50;95.90;;;;;;5067157;28;20031;-57
2021/04/15 02:29:08;;;;;;;3.35;1.58;;;5.60;95.90;;;;;;5062498;28;20070;-57
2021/04/15 02:31:58;;;;;;;3.33;1.80;;;5.50;96.10;;;;;;5049550;28;20511;-57
2021/04/15 02:34:36;;;;;;;3.15;1.50;;;5.50;96.20;;;;;;5047545;28;20056;-57
2021/04/15 02:37:11;;;;;;;4.38;1.60;;;5.50;96.40;;;;;;5047195;28;20024;-57
2021/04/15 02:39:43;;;;;;;2.80;1.95;;;5.40;96.60;;;;;;5046739;28;20072;-57
2021/04/15 02:42:14;;;;;;;3.33;1.55;;;5.30;96.80;;;;;;5047086;28;20056;-57
2021/04/15 02:44:48;;;;;;;2.75;1.50;;;5.30;97.00;;;;;;5045638;28;20029;-57
2021/04/15 02:47:46;;;;;;;2.92;1.65;;;5.30;97.20;;;;;;5046800;28;20442;-58
2021/04/15 02:50:16;;;;;;;2.45;1.60;;;5.30;97.50;;;;;;5049891;28;20037;-57
2021/04/15 02:52:47;;;;;;;2.50;1.45;;;5.30;97.60;;;;;;5047118;28;20028;-57
2021/04/15 02:55:17;;;;;;;4.22;1.75;;;5.30;97.80;;;;;;5060543;28;20651;-57
2021/04/15 02:58:16;;;;;;;2.80;1.60;;;5.30;97.80;;;;;;5066821;28;20059;-57
2021/04/15 03:00:46;;;;;;;3.05;2.20;;;5.10;99.00;;;;;;5066956;28;20040;-57
2021/04/15 03:03:20;;;;;;;2.38;1.63;;;5.10;99.70;;;;;;5066165;28;20035;-57
2021/04/15 03:05:57;;;;;;;2.80;1.80;;;5.20;99.50;;;;;;5065641;28;20028;-57
2021/04/15 03:08:26;;;;;;;2.72;1.55;;;5.10;99.60;;;;;;5066423;28;20047;-57
2021/04/15 03:11:06;;;;;;;4.15;1.77;;;5.10;99.70;;;;;;5067063;28;20024;-57
2021/04/15 03:13:45;;;;;;;3.35;1.35;;;5.20;99.40;;;;;;5065440;28;20086;-58
2021/04/15 03:16:11;;;;;;;2.67;1.50;;;5.10;99.60;;;;;;5046446;28;20043;-57
2021/04/15 03:18:42;;;;;;;2.47;1.92;;;4.90;99.90;;;;;;5045589;28;20029;-57
2021/04/15 03:21:23;;;;;;;4.28;2.35;;;4.90;99.90;;;;;;5046341;28;20029;-57
2021/04/15 03:23:57;;;;;;;6.10;2.67;;;5.00;99.90;;;;;;5045485;28;20090;-57
2021/04/15 03:26:42;;;;;;;6.95;3.72;;;5.00;99.90;;;;;;5045872;28;20138;-57
2021/04/15 03:29:14;;;;;;;7.70;3.35;;;5.00;99.90;;;;;;5045750;28;20017;-57
2021/04/15 03:32:00;;;;;;;6.38;3.17;;;5.00;99.90;;;;;;5057752;28;20037;-57
2021/04/15 03:34:56;;;;;;;6.50;2.78;;;5.10;99.90;;;;;;5048159;28;20033;-57
2021/04/15 03:37:28;;;;;;;5.85;2.80;;;5.10;99.90;;;;;;5051721;28;20056;-56
2021/04/15 03:39:55;;;;;;;3.35;2.25;;;4.90;99.90;;;;;;5057529;28;20064;-57
2021/04/15 03:42:43;;;;;;;2.97;1.92;;;4.80;99.90;;;;;;5049043;28;20032;-57
2021/04/15 03:45:19;;;;;;;4.82;2.40;;;4.90;99.90;;;;;;5048055;28;20086;-57
2021/04/15 03:47:50;;;;;;;6.30;3.15;;;4.90;99.90;;;;;;5065033;28;20048;-57
2021/04/15 03:50:20;;;;;;;13.65;5.38;;;5.00;99.90;;;;;;5067110;28;20029;-57
2021/04/15 03:52:58;;;;;;;13.55;4.28;;;4.90;99.90;;;;;;5065144;28;20021;-57
2021/04/15 03:55:30;;;;;;;24.20;7.50;;;4.80;99.90;;;;;;5047553;28;20025;-57
2021/04/15 03:58:15;;;;;;;33.88;8.85;;;4.80;99.90;;;;;;5047312;28;20841;-57
2021/04/15 04:00:46;;;;;;;45.22;14.07;;;4.70;99.90;;;;;;5048289;28;20029;-57
2021/04/15 04:03:21;;;;;;;37.45;13.95;;;4.70;99.90;;;;;;5046648;28;20039;-57
2021/04/15 04:05:49;;;;;;;28.25;11.90;;;4.70;99.90;;;;;;5054252;28;20025;-57
2021/04/15 04:08:23;;;;;;;21.60;8.63;;;4.80;99.90;;;;;;5062204;28;20037;-57
2021/04/15 04:10:54;;;;;;;13.48;6.30;;;4.70;99.90;;;;;;5065344;28;20024;-57
2021/04/15 04:13:23;;;;;;;8.63;5.40;;;4.60;99.90;;;;;;5065385;28;20403;-57
2021/04/15 04:16:13;;;;;;;9.23;4.00;;;4.70;99.90;;;;;;5065326;28;20056;-57
2021/04/15 04:18:48;;;;;;;6.57;3.50;;;4.60;99.90;;;;;;5063996;28;20406;-57
2021/04/15 04:22:01;;;;;;;4.15;3.00;;;4.60;99.90;;;;;;5061214;28;20128;-57
2021/04/15 04:24:51;;;;;;;4.95;3.50;;;4.60;99.90;;;;;;5044786;28;20131;-57
2021/04/15 04:27:33;;;;;;;6.20;3.40;;;4.60;99.90;;;;;;5046429;28;20068;-57
2021/04/15 04:30:32;;;;;;;3.90;3.50;;;4.70;99.90;;;;;;5045366;28;20048;-57
2021/04/15 04:33:04;;;;;;;5.45;3.70;;;4.60;99.90;;;;;;5043782;28;20051;-57
2021/04/15 04:35:35;;;;;;;5.00;3.00;;;4.60;99.90;;;;;;5045614;28;20027;-57
2021/04/15 04:38:05;;;;;;;3.72;2.72;;;4.70;99.90;;;;;;5044269;28;20115;-57
2021/04/15 04:40:48;;;;;;;4.35;2.97;;;4.60;99.90;;;;;;5045261;28;20021;-58
2021/04/15 04:43:48;;;;;;;5.13;2.75;;;4.60;99.90;;;;;;5044468;28;20029;-57
2021/04/15 04:46:42;;;;;;;3.03;2.58;;;4.40;99.90;;;;;;5044689;28;20399;-57
2021/04/15 04:49:18;;;;;;;4.00;2.60;;;4.50;99.90;;;;;;5044547;28;20021;-57
2021/04/15 04:51:55;;;;;;;3.97;2.33;;;4.30;99.90;;;;;;5045006;28;20079;-57
2021/04/15 04:54:22;;;;;;;4.15;2.78;;;4.20;99.90;;;;;;5044880;28;20400;-57
2021/04/15 04:57:03;;;;;;;4.68;2.75;;;4.00;99.90;;;;;;5056755;28;20383;-57
2021/04/15 04:59:34;;;;;;;4.80;2.75;;;4.00;99.90;;;;;;5063842;28;20483;-57
2021/04/15 05:02:01;;;;;;;3.05;2.28;;;4.00;99.90;;;;;;5062981;28;20021;-57
2021/04/15 05:04:32;;;;;;;5.00;2.67;;;4.00;99.90;;;;;;5064980;28;20494;-57
2021/04/15 05:07:07;;;;;;;4.22;2.40;;;3.90;99.90;;;;;;5064300;28;20100;-57
2021/04/15 05:09:37;;;;;;;;;;;4.10;99.90;;;;;;5061917;28;20059;-57
2021/04/15 05:12:15;;;;;;;3.72;2.42;;;4.00;99.90;;;;;;5063984;28;19908;-57
2021/04/15 05:14:42;;;;;;;6.63;3.00;;;4.00;99.90;;;;;;5064790;28;20033;-57
2021/04/15 05:17:29;;;;;;;4.25;2.95;;;4.10;99.90;;;;;;5063777;28;20032;-57
2021/04/15 05:19:55;;;;;;;3.88;2.70;;;4.10;99.90;;;;;;5055605;28;20029;-57
2021/04/15 05:22:36;;;;;;;6.15;3.17;;;4.20;99.90;;;;;;5044565;28;20067;-57
2021/04/15 05:25:13;;;;;;;4.10;2.75;;;4.20;99.90;;;;;;5044548;28;20032;-57
2021/04/15 05:27:41;;;;;;;4.38;2.55;;;4.20;99.90;;;;;;5043940;28;20083;-57
2021/04/15 05:30:27;;;;;;;5.13;2.67;;;4.20;99.90;;;;;;5054004;28;20039;-57
2021/04/15 05:33:02;;;;;;;3.92;2.40;;;4.20;99.90;;;;;;5065181;28;20506;-57
2021/04/15 05:35:36;;;;;;;3.40;2.50;;;4.20;99.90;;;;;;5064365;28;20035;-57
2021/04/15 05:38:05;;;;;;;3.53;2.70;;;4.30;99.90;;;;;;5064303;28;20040;-57
2021/04/15 05:40:30;;;;;;;3.25;2.30;;;4.40;99.90;;;;;;5062723;28;20059;-57
2021/04/15 05:43:28;;;;;;;5.22;2.83;;;4.40;99.90;;;;;;5065084;28;20025;-57
2021/04/15 05:46:07;;;;;;;6.53;3.25;;;4.50;99.90;;;;;;5064673;28;20051;-57
2021/04/15 05:48:35;;;;;;;4.05;3.13;;;4.50;99.90;;;;;;5064811;28;20060;-57
2021/04/15 05:51:07;;;;;;;5.07;3.40;;;4.40;99.90;;;;;;5062551;28;20508;-57
2021/04/15 05:54:03;;;;;;;6.68;3.80;;;4.50;99.90;;;;;;5064441;28;20579;-57
2021/04/15 05:56:34;;;;;;;11.85;5.68;;;4.50;99.90;;;;;;5047117;28;20537;-57
2021/04/15 05:59:19;;;;;;;11.93;6.15;;;4.60;99.90;;;;;;5047947;28;20112;-57
2021/04/15 06:02:07;;;;;;;;;;;4.60;99.90;;;;;;5066860;28;20025;-57
2021/04/15 06:04:45;;;;;;;20.02;8.88;;;4.40;99.90;;;;;;5067759;28;19912;-57
2021/04/15 06:07:19;;;;;;;15.38;7.40;;;4.50;99.90;;;;;;5066816;28;20036;-57
2021/04/15 06:09:45;;;;;;;17.98;7.13;;;4.60;99.90;;;;;;5064382;28;20103;-57
2021/04/15 06:12:50;;;;;;;19.50;8.48;;;4.60;99.90;;;;;;5047552;28;20086;-57
2021/04/15 06:15:33;;;;;;;13.90;6.80;;;4.70;99.90;;;;;;5053901;28;20041;-57
2021/04/15 06:18:11;;;;;;;23.65;9.32;;;4.60;99.90;;;;;;5067356;28;20477;-57
2021/04/15 06:20:43;;;;;;;20.58;8.23;;;4.50;99.90;;;;;;5067600;28;20074;-57
2021/04/15 06:23:33;;;;;;;17.40;7.85;;;4.60;99.90;;;;;;5066153;28;20053;-57
2021/04/15 06:25:59;;;;;;;17.35;7.90;;;4.70;99.90;;;;;;5067558;28;20045;-57
2021/04/15 06:28:30;;;;;;;19.90;8.45;;;4.70;99.90;;;;;;5067761;28;20017;-57
2021/04/15 06:31:05;;;;;;;13.02;6.03;;;4.80;99.90;;;;;;5053019;28;20036;-57
2021/04/15 06:33:32;;;;;;;12.30;5.57;;;4.70;99.90;;;;;;5048431;28;20532;-57
2021/04/15 06:36:00;;;;;;;8.57;4.22;;;4.80;99.90;;;;;;5049065;28;20566;-57
2021/04/15 06:39:08;;;;;;;7.43;4.43;;;4.90;99.90;;;;;;5049564;28;20025;-57
2021/04/15 06:42:13;;;;;;;8.85;4.72;;;5.10;99.90;;;;;;5054203;28;20041;-57
2021/04/15 06:45:07;;;;;;;12.18;5.93;;;5.20;99.90;;;;;;5048762;28;20060;-57
2021/04/15 06:47:50;;;;;;;16.55;8.05;;;4.80;99.90;;;;;;5048323;28;20514;-57
2021/04/15 06:50:18;;;;;;;14.75;7.43;;;4.80;99.90;;;;;;5048520;28;20025;-57
2021/04/15 06:52:53;;;;;;;14.32;7.45;;;4.70;99.90;;;;;;5048685;28;20537;-57
2021/04/15 06:56:10;;;;;;;20.67;8.90;;;4.70;99.90;;;;;;5046659;28;20400;-57
2021/04/15 06:58:45;;;;;;;13.30;6.78;;;4.80;99.90;;;;;;5066724;28;20045;-57
2021/04/15 07:01:25;;;;;;;11.30;5.85;;;4.70;99.90;;;;;;5060060;28;20037;-57
2021/04/15 07:04:00;;;;;;;13.70;7.70;;;4.90;99.90;;;;;;5047901;28;20094;-57
2021/04/15 07:06:35;;;;;;;11.68;5.75;;;5.10;99.90;;;;;;5048254;28;20025;-57
2021/04/15 07:09:09;;;;;;;;;;;5.00;99.90;;;;;;5061502;28;20043;-57
2021/04/15 07:11:54;;;;;;;13.05;6.03;;;5.00;99.90;;;;;;5063329;28;19919;-57
2021/04/15 07:14:57;;;;;;;7.20;4.40;;;5.00;99.90;;;;;;5048085;28;20083;-57
2021/04/15 07:17:48;;;;;;;7.45;4.72;;;5.10;99.90;;;;;;5048338;28;20041;-57
2021/04/15 07:20:43;;;;;;;8.95;4.95;;;5.10;99.90;;;;;;5047815;28;20025;-57
2021/04/15 07:23:27;;;;;;;13.07;6.45;;;5.20;99.90;;;;;;5046898;28;20572;-57
2021/04/15 07:26:11;;;;;;;10.85;5.47;;;5.00;99.90;;;;;;5062986;28;20028;-57
2021/04/15 07:29:08;;;;;;;11.85;6.30;;;5.10;99.90;;;;;;5065153;28;20016;-57
2021/04/15 07:31:56;;;;;;;7.90;4.50;;;5.00;99.90;;;;;;5066617;28;20045;-57
2021/04/15 07:35:14;;;;;;;9.63;4.88;;;5.10;99.90;;;;;;5067954;28;20029;-57
2021/04/15 07:38:09;;;;;;;6.03;4.15;;;5.00;99.90;;;;;;5061367;28;20111;-57
2021/04/15 07:41:07;;;;;;;5.68;3.95;;;5.10;99.90;;;;;;5060426;28;20106;-57
2021/04/15 07:44:06;;;;;;;6.22;3.63;;;5.20;99.90;;;;;;5047683;28;20040;-57
2021/04/15 07:46:43;;;;;;;5.93;3.53;;;5.20;99.90;;;;;;5047270;28;20025;-57
2021/04/15 07:49:33;;;;;;;5.55;3.63;;;5.30;99.90;;;;;;5051549;28;20032;-57
2021/04/15 07:52:23;;;;;;;3.78;2.65;;;5.30;99.90;;;;;;5067413;28;20017;-57
2021/04/15 07:55:13;;;;;;;5.78;3.65;;;5.50;99.90;;;;;;5067362;28;20031;-57
2021/04/15 07:57:47;;;;;;;6.18;3.67;;;5.60;99.90;;;;;;5067381;28;20026;-57
2021/04/15 08:00:20;;;;;;;5.00;2.95;;;5.60;99.90;;;;;;5054636;28;20067;-57
2021/04/15 08:03:23;;;;;;;6.55;3.60;;;5.80;99.90;;;;;;5047470;28;20032;-57
2021/04/15 08:06:12;;;;;;;8.68;4.35;;;5.90;99.90;;;;;;5047298;28;20025;-57
2021/04/15 08:08:49;;;;;;;5.63;3.83;;;5.70;99.90;;;;;;5066560;28;20174;-57
2021/04/15 08:11:56;;;;;;;6.10;4.20;;;5.70;99.90;;;;;;5046986;28;20048;-57
2021/04/15 08:14:42;;;;;;;7.70;4.28;;;5.60;99.90;;;;;;5047411;28;20037;-57
2021/04/15 08:17:37;;;;;;;6.43;3.33;;;5.60;99.90;;;;;;5046336;28;20021;-57
2021/04/15 08:20:29;;;;;;;4.88;3.30;;;5.80;99.90;;;;;;5067955;28;20044;-57
2021/04/15 08:23:16;;;;;;;5.88;3.65;;;6.00;99.90;;;;;;5047396;28;20060;-57
2021/04/15 08:25:54;;;;;;;3.65;2.95;;;6.10;99.90;;;;;;5046819;28;20166;-57
2021/04/15 08:29:03;;;;;;;5.05;2.80;;;6.00;99.90;;;;;;5046639;28;20021;-57
2021/04/15 08:31:57;;;;;;;4.15;2.55;;;6.20;99.90;;;;;;5044093;28;20143;-57
2021/04/15 08:34:36;;;;;;;6.65;2.83;;;6.20;99.90;;;;;;5047334;28;20021;-57
2021/04/15 08:37:36;;;;;;;3.58;2.80;;;6.50;99.90;;;;;;5046652;28;20029;-57
2021/04/15 08:40:19;;;;;;;3.33;2.28;;;6.20;99.90;;;;;;5054270;28;20028;-57
2021/04/15 08:43:11;;;;;;;4.18;2.55;;;6.40;99.90;;;;;;5066661;28;20421;-57
2021/04/15 08:45:58;;;;;;;2.50;1.98;;;6.70;99.90;;;;;;5066107;28;20544;-57
2021/04/15 08:48:56;;;;;;;3.85;2.60;;;7.00;99.90;;;;;;5066844;28;20044;-57
2021/04/15 08:52:14;;;;;;;5.93;3.58;;;6.90;99.90;;;;;;5046320;28;20045;-57
2021/04/15 08:55:08;;;;;;;5.75;3.55;;;6.90;99.90;;;;;;5051308;28;20456;-57
2021/04/15 08:57:34;;;;;;;5.32;3.72;;;6.60;99.90;;;;;;5063591;28;20646;-57
2021/04/15 09:00:23;;;;;;;5.60;3.95;;;6.70;99.90;;;;;;5045371;28;20033;-57
2021/04/15 09:02:52;;;;;;;6.97;3.72;;;6.70;99.90;;;;;;5061969;28;20024;-57
2021/04/15 09:05:28;;;;;;;6.22;4.25;;;6.70;99.90;;;;;;5065920;28;20166;-57
2021/04/15 09:08:00;;;;;;;5.40;3.30;;;6.70;99.90;;;;;;5052733;28;20672;-58
2021/04/15 09:10:33;;;;;;;5.03;3.03;;;7.00;99.90;;;;;;5047706;28;20659;-57
2021/04/15 09:13:44;;;;;;;4.95;3.25;;;7.20;99.90;;;;;;5047652;28;20673;-58
2021/04/15 09:16:34;;;;;;;5.40;3.22;;;7.40;99.90;;;;;;5043835;28;20053;-58
2021/04/15 09:19:10;;;;;;;3.15;2.30;;;7.30;99.90;;;;;;5060739;28;20505;-58
2021/04/15 09:22:16;;;;;;;7.13;4.20;;;7.40;99.90;;;;;;5064245;28;20028;-58
2021/04/15 09:24:58;;;;;;;7.38;4.07;;;7.30;99.90;;;;;;5056068;28;20522;-58
2021/04/15 09:27:35;;;;;;;9.05;4.55;;;7.20;99.90;;;;;;5054631;28;20499;-58
2021/04/15 09:30:15;;;;;;;7.63;4.53;;;7.20;99.90;;;;;;5061301;28;20473;-58
2021/04/15 09:32:56;;;;;;;7.30;3.88;;;7.40;99.90;;;;;;5047707;28;20056;-58
2021/04/15 09:35:42;;;;;;;7.03;3.90;;;7.50;99.90;;;;;;5048377;28;20021;-58
2021/04/15 09:38:17;;;;;;;6.78;3.08;;;7.60;99.90;;;;;;5047468;28;20017;-58
2021/04/15 09:41:07;;;;;;;;;;;7.70;99.90;;;;;;5048279;28;20020;-57
2021/04/15 09:43:51;;;;;;;4.05;2.63;;;7.80;99.90;;;;;;5051545;28;20017;-57
2021/04/15 09:46:17;;;;;;;5.07;2.60;;;7.80;99.90;;;;;;5053716;28;20086;-58
2021/04/15 09:49:07;;;;;;;3.65;2.17;;;8.00;99.90;;;;;;5047539;28;20503;-58
2021/04/15 09:51:40;;;;;;;3.15;1.98;;;8.10;99.90;;;;;;5047705;28;20024;-57
2021/04/15 09:54:34;;;;;;;2.58;2.00;;;8.20;99.90;;;;;;5047330;28;20074;-57
2021/04/15 09:57:09;;;;;;;4.68;3.50;;;8.10;99.90;;;;;;5047430;28;20037;-58
2021/04/15 09:59:54;;;;;;;5.97;4.00;;;7.80;99.90;;;;;;5047375;28;20035;-57
2021/04/15 10:02:36;;;;;;;4.63;2.60;;;7.90;99.90;;;;;;5049123;28;20033;-58
2021/04/15 10:05:09;;;;;;;5.30;3.13;;;8.10;99.90;;;;;;5045782;28;20087;-58
2021/04/15 10:07:47;;;;;;;4.28;2.45;;;8.20;99.90;;;;;;5047238;28;20029;-58
2021/04/15 10:10:39;;;;;;;1.77;1.67;;;8.50;99.90;;;;;;5047007;28;20380;-57
2021/04/15 10:13:26;;;;;;;2.90;1.90;;;8.70;99.80;;;;;;5055540;28;20066;-57
2021/04/15 10:16:01;;;;;;;4.72;2.70;;;8.60;99.10;;;;;;5047515;28;20035;-58
2021/04/15 10:18:46;;;;;;;2.80;1.88;;;8.60;99.10;;;;;;5047056;28;20064;-57
2021/04/15 10:21:18;;;;;;;3.78;2.03;;;8.80;98.60;;;;;;5057099;28;20037;-57
2021/04/15 10:24:02;;;;;;;4.60;3.97;;;8.80;99.00;;;;;;5060699;28;20144;-57
2021/04/15 10:26:28;;;;;;;5.03;3.45;;;8.50;98.50;;;;;;5046426;28;20487;-58
2021/04/15 10:28:53;;;;;;;5.57;2.80;;;8.60;99.80;;;;;;5047719;28;20056;-58
2021/04/15 10:31:51;;;;;;;4.00;2.47;;;8.90;98.40;;;;;;5046636;28;20021;-58
2021/04/15 10:34:44;;;;;;;2.80;1.65;;;9.10;98.20;;;;;;5046346;28;20063;-57
2021/04/15 10:37:39;;;;;;;2.15;1.30;;;9.20;97.20;;;;;;5046628;28;20136;-55
2021/04/15 10:40:32;;;;;;;1.75;1.00;;;9.40;96.80;;;;;;5045964;28;20151;-59
2021/04/15 10:43:21;;;;;;;2.38;2.00;;;9.50;96.90;;;;;;5045509;28;20027;-60
2021/04/15 10:46:11;;;;;;;4.13;2.60;;;9.40;95.90;;;;;;5055871;28;20053;-59
2021/04/15 10:48:57;;;;;;;5.03;3.45;;;9.20;95.40;;;;;;5046438;28;20036;-60
2021/04/15 10:51:41;;;;;;;4.47;2.95;;;9.10;95.20;;;;;;5046816;28;20033;-57
2021/04/15 10:54:29;;;;;;;5.28;3.80;;;9.50;96.10;;;;;;5047770;28;20029;-58
2021/04/15 10:57:00;;;;;;;4.63;3.47;;;9.40;95.40;;;;;;5050319;28;20029;-58
2021/04/15 10:59:33;;;;;;;5.25;3.60;;;9.40;94.90;;;;;;5064206;28;20165;-57
2021/04/15 11:02:18;;;;;;;3.45;2.55;;;9.60;95.40;;;;;;5066845;28;20091;-56
2021/04/15 11:04:46;;;;;;;3.28;2.22;;;9.90;95.00;;;;;;5066935;28;20060;-56
2021/04/15 11:07:17;;;;;;;4.03;2.30;;;10.10;96.30;;;;;;5064704;28;20075;-57
2021/04/15 11:09:48;;;;;;;2.95;2.38;;;10.10;94.40;;;;;;5064832;28;20056;-57
2021/04/15 11:12:13;;;;;;;3.55;1.92;;;10.20;94.20;;;;;;5066485;28;20082;-56
2021/04/15 11:14:46;;;;;;;2.38;1.33;;;10.30;94.40;;;;;;5066571;28;20024;-56
2021/04/15 11:17:41;;;;;;;3.10;2.20;;;10.50;93.60;;;;;;5059727;28;20048;-55
2021/04/15 11:20:29;;;;;;;2.55;1.98;;;10.30;91.70;;;;;;5049243;28;20033;-56
2021/04/15 11:22:59;;;;;;;3.58;2.80;;;10.30;92.70;;;;;;5063888;28;20024;-55
2021/04/15 11:25:28;;;;;;;2.92;2.13;;;10.50;93.00;;;;;;5061694;28;20033;-56
2021/04/15 11:27:56;;;;;;;5.47;3.08;;;10.70;92.40;;;;;;5046797;28;20025;-56
2021/04/15 11:30:29;;;;;;;5.60;3.35;;;10.80;92.20;;;;;;5054789;28;20029;-56
2021/04/15 11:32:54;;;;;;;2.90;2.33;;;10.40;91.90;;;;;;5051896;28;20033;-55
2021/04/15 11:35:22;;;;;;;2.28;1.83;;;10.70;92.40;;;;;;5047580;28;20029;-55
2021/04/15 11:37:51;;;;;;;2.30;1.83;;;11.10;92.30;;;;;;5047691;28;20504;-55
2021/04/15 11:40:35;;;;;;;2.25;1.50;;;11.30;92.60;;;;;;5047541;28;20626;-55
2021/04/15 11:43:34;;;;;;;4.07;2.33;;;11.50;91.80;;;;;;5047250;28;20639;-55
2021/04/15 11:46:19;;;;;;;10.13;3.70;;;11.50;92.40;;;;;;5047277;28;20491;-55
2021/04/15 11:49:03;;;;;;;7.25;3.25;;;11.80;91.80;;;;;;5047121;28;20104;-55
2021/04/15 11:51:35;;;;;;;7.07;3.20;;;11.60;90.50;;;;;;5048001;28;20036;-56
2021/04/15 11:54:01;;;;;;;4.53;2.33;;;11.20;91.00;;;;;;5055044;28;20020;-55
2021/04/15 11:56:35;;;;;;;3.80;2.33;;;11.40;91.80;;;;;;5067062;28;20444;-55
2021/04/15 11:59:17;;;;;;;3.05;2.03;;;11.50;91.00;;;;;;5051861;28;20017;-55
2021/04/15 12:01:44;;;;;;;7.07;3.80;;;11.40;91.20;;;;;;5047202;28;20036;-55
2021/04/15 12:04:16;;;;;;;8.52;4.07;;;11.00;90.70;;;;;;5060791;28;20068;-55
2021/04/15 12:06:47;;;;;;;8.32;4.40;;;11.00;90.90;;;;;;5066766;28;20120;-55
2021/04/15 12:09:17;;;;;;;16.88;6.35;;;11.30;90.80;;;;;;5065265;28;20107;-55
2021/04/15 12:12:04;;;;;;;23.10;9.70;;;11.60;91.00;;;;;;5067005;28;20025;-55
2021/04/15 12:14:33;;;;;;;22.95;9.20;;;11.60;89.10;;;;;;5066569;28;20025;-55
2021/04/15 12:17:11;;;;;;;14.50;6.10;;;11.60;90.30;;;;;;5066961;28;20025;-55
2021/04/15 12:20:08;;;;;;;7.18;4.00;;;11.60;90.40;;;;;;5065679;28;20020;-55
2021/04/15 12:23:11;;;;;;;5.10;3.40;;;11.50;89.20;;;;;;5067319;28;20063;-55
2021/04/15 12:25:48;;;;;;;5.20;3.92;;;11.50;89.80;;;;;;5053947;28;20275;-55
2021/04/15 12:28:48;;;;;;;4.50;2.80;;;11.20;88.90;;;;;;5050500;28;20017;-54
2021/04/15 12:31:21;;;;;;;3.70;2.08;;;11.60;89.00;;;;;;5052093;28;20025;-55
2021/04/15 12:33:59;;;;;;;2.88;2.00;;;11.70;89.60;;;;;;5046939;28;20112;-55
2021/04/15 12:36:30;;;;;;;4.90;2.75;;;11.60;89.40;;;;;;5046617;28;20032;-55
2021/04/15 12:39:04;;;;;;;2.45;2.00;;;11.60;88.90;;;;;;5046005;28;20017;-55
2021/04/15 12:41:31;;;;;;;2.42;2.00;;;11.60;89.80;;;;;;5046459;28;20028;-56
2021/04/15 12:44:26;;;;;;;3.33;1.63;;;11.90;88.40;;;;;;5045974;28;20495;-56
2021/04/15 12:46:56;;;;;;;2.20;1.50;;;12.30;88.20;;;;;;5046629;28;20037;-55
2021/04/15 12:49:25;;;;;;;1.77;1.13;;;12.80;87.50;;;;;;5046224;28;20044;-56
2021/04/15 12:51:56;;;;;;;1.40;1.30;;;13.00;86.30;;;;;;5046180;28;20036;-56
2021/04/15 12:54:31;;;;;;;1.42;1.33;;;13.20;85.20;;;;;;5053743;28;20032;-55
2021/04/15 12:57:00;;;;;;;1.42;1.20;;;13.00;82.70;;;;;;5048492;28;20051;-56
2021/04/15 12:59:28;;;;;;;1.30;1.02;;;13.00;82.40;;;;;;5046000;28;20406;-55
2021/04/15 13:01:55;;;;;;;1.20;1.10;;;13.40;84.70;;;;;;5046455;28;20033;-55
2021/04/15 13:04:25;;;;;;;1.20;1.10;;;13.70;83.10;;;;;;5048085;28;20029;-54
2021/04/15 13:06:59;;;;;;;2.15;1.60;;;13.50;81.10;;;;;;5062833;28;20029;-55
2021/04/15 13:09:29;;;;;;;3.08;2.05;;;12.70;82.40;;;;;;5058115;28;20112;-55
2021/04/15 13:11:56;;;;;;;2.10;1.58;;;12.70;82.80;;;;;;5046891;28;20492;-55
2021/04/15 13:14:41;;;;;;;2.08;1.23;;;13.10;82.90;;;;;;5049135;28;20033;-56
2021/04/15 13:17:10;;;;;;;3.67;1.60;;;13.30;80.40;;;;;;5045080;28;20029;-56
2021/04/15 13:19:56;;;;;;;2.47;1.52;;;13.20;81.20;;;;;;5044053;28;20021;-56
2021/04/15 13:22:37;;;;;;;2.30;1.98;;;13.60;80.00;;;;;;5044353;28;20168;-55
2021/04/15 13:25:05;;;;;;;1.98;1.30;;;13.00;79.50;;;;;;5045489;28;20036;-55
2021/04/15 13:27:34;;;;;;;2.58;1.40;;;13.40;81.30;;;;;;5044701;28;20025;-56
2021/04/15 13:30:15;;;;;;;2.90;2.13;;;13.70;79.90;;;;;;5044518;28;20021;-56
2021/04/15 13:32:59;;;;;;;2.50;1.60;;;13.70;78.20;;;;;;5045190;28;20028;-56
2021/04/15 13:35:50;;;;;;;1.83;1.50;;;13.90;78.40;;;;;;5044829;28;20029;-55
2021/04/15 13:38:46;;;;;;;2.35;1.73;;;13.70;77.40;;;;;;5056986;28;20090;-56
2021/04/15 13:41:41;;;;;;;1.70;1.30;;;13.40;77.60;;;;;;5044005;28;20037;-56
2021/04/15 13:44:10;;;;;;;;;;;13.50;78.20;;;;;;5045394;28;20060;-56
2021/04/15 13:46:43;;;;;;;2.55;1.50;;;12.90;76.50;;;;;;5045126;28;19912;-56
2021/04/15 13:49:18;;;;;;;2.00;1.40;;;12.60;77.30;;;;;;5043290;28;20372;-57
2021/04/15 13:51:50;;;;;;;2.55;1.73;;;12.60;76.70;;;;;;5044366;28;20021;-56
2021/04/15 13:54:16;;;;;;;2.65;1.77;;;12.30;77.20;;;;;;5044035;28;20029;-56
2021/04/15 13:56:53;;;;;;;1.45;1.13;;;12.40;77.00;;;;;;5044311;28;20040;-56
2021/04/15 13:59:30;;;;;;;1.15;1.05;;;12.80;79.80;;;;;;5043902;28;20021;-56